Time;durP1;ratioP1;P1;durP2;ratioP2;P2;SDS_P1;SDS_P2;PMS_P1;PMS_P2;Temp;Humidity;BMP_temperature;BMP_pressure;BME280_temperature;BME280_humidity;BME280_pressure;Samples;Min_cycle;Max_cycle;Signal;HPM_P1;HPM_P2
2023/09/29 00:00:48;;;;;;;16.88;8.20;;;15.60;99.90;;;;;;4977898;28;20197;-60
2023/09/29 00:03:15;;;;;;;10.82;8.18;;;15.60;99.90;;;;;;4977723;28;20200;-61
2023/09/29 00:05:43;;;;;;;10.02;8.05;;;15.60;99.90;;;;;;4977687;28;20181;-61
2023/09/29 00:08:09;;;;;;;12.23;8.35;;;15.60;99.90;;;;;;4976168;28;20652;-61
2023/09/29 00:10:39;;;;;;;12.23;8.43;;;15.60;99.90;;;;;;4977459;28;20231;-61
2023/09/29 00:13:05;;;;;;;12.05;9.63;;;15.60;99.90;;;;;;4977633;28;20580;-60
2023/09/29 00:15:33;;;;;;;12.90;9.20;;;15.60;99.90;;;;;;4958290;28;20209;-61
2023/09/29 00:18:02;;;;;;;12.95;8.98;;;15.60;99.90;;;;;;4960215;28;20232;-61
2023/09/29 00:20:29;;;;;;;13.38;10.55;;;15.60;99.90;;;;;;4977770;28;20189;-60
2023/09/29 00:22:56;;;;;;;14.25;10.20;;;15.60;99.90;;;;;;4977451;28;20173;-61
2023/09/29 00:25:23;;;;;;;13.50;9.93;;;15.70;99.90;;;;;;4959972;28;20202;-60
2023/09/29 00:27:50;;;;;;;15.10;10.98;;;15.70;99.90;;;;;;4977287;28;20181;-61
2023/09/29 00:30:16;;;;;;;18.13;11.45;;;15.60;99.90;;;;;;4977518;28;20669;-60
2023/09/29 00:32:46;;;;;;;15.00;10.73;;;15.60;99.90;;;;;;4976097;28;20185;-60
2023/09/29 00:35:19;;;;;;;13.38;10.98;;;15.70;99.90;;;;;;4978079;28;20626;-60
2023/09/29 00:37:45;;;;;;;15.68;10.98;;;15.60;99.90;;;;;;4977038;28;20208;-60
2023/09/29 00:40:14;;;;;;;12.93;9.63;;;15.70;99.90;;;;;;4977436;28;20298;-61
2023/09/29 00:42:44;;;;;;;15.70;10.27;;;15.60;99.90;;;;;;4976660;28;20201;-61
2023/09/29 00:45:11;;;;;;;13.52;10.05;;;15.60;99.90;;;;;;4977237;28;20177;-61
2023/09/29 00:47:38;;;;;;;11.20;9.00;;;15.60;99.90;;;;;;4976988;28;20181;-61
2023/09/29 00:50:07;;;;;;;12.32;9.85;;;15.60;99.90;;;;;;4974546;28;20204;-61
2023/09/29 00:52:34;;;;;;;13.63;9.07;;;15.60;99.90;;;;;;4976447;28;20209;-61
2023/09/29 00:55:00;;;;;;;10.15;8.57;;;15.50;99.90;;;;;;4977478;28;20197;-61
2023/09/29 00:57:28;;;;;;;14.73;9.55;;;15.50;99.90;;;;;;4976628;28;20209;-60
2023/09/29 00:59:54;;;;;;;10.32;8.13;;;15.50;99.90;;;;;;4977008;28;20189;-60
2023/09/29 01:02:20;;;;;;;14.52;9.10;;;15.50;99.90;;;;;;4976799;28;20195;-61
2023/09/29 01:04:46;;;;;;;12.70;9.77;;;15.40;99.90;;;;;;4975949;28;20268;-61
2023/09/29 01:07:13;;;;;;;12.25;8.88;;;15.40;99.90;;;;;;4980254;28;20264;-61
2023/09/29 01:09:38;;;;;;;11.05;8.55;;;15.40;99.90;;;;;;4959055;28;20248;-61
2023/09/29 01:12:05;;;;;;;14.52;8.65;;;15.40;99.90;;;;;;4976725;28;20228;-61
2023/09/29 01:14:31;;;;;;;15.77;8.40;;;15.40;99.90;;;;;;4975902;28;20189;-61
2023/09/29 01:16:57;;;;;;;10.32;7.97;;;15.40;99.90;;;;;;4958922;28;20213;-62
2023/09/29 01:19:22;;;;;;;13.55;7.88;;;15.30;99.90;;;;;;4992646;28;20227;-61
2023/09/29 01:21:48;;;;;;;11.85;8.38;;;15.30;99.90;;;;;;4981778;28;20188;-60
2023/09/29 01:24:14;;;;;;;12.68;8.25;;;15.30;99.90;;;;;;4983670;28;20212;-61
2023/09/29 01:26:44;;;;;;;13.65;8.40;;;15.30;99.90;;;;;;4976171;28;20239;-60
2023/09/29 01:29:11;;;;;;;10.88;8.18;;;15.30;99.90;;;;;;4976502;28;20332;-61
2023/09/29 01:31:38;;;;;;;11.30;8.57;;;15.30;99.90;;;;;;4976083;28;20177;-61
2023/09/29 01:34:04;;;;;;;12.85;9.10;;;15.30;99.90;;;;;;4976280;28;20205;-61
2023/09/29 01:36:31;;;;;;;12.40;9.32;;;15.40;99.90;;;;;;4976025;28;20209;-64
2023/09/29 01:38:57;;;;;;;11.88;8.00;;;15.40;99.90;;;;;;4974444;28;20213;-60
2023/09/29 01:41:22;;;;;;;10.82;8.25;;;15.40;99.90;;;;;;4975936;28;20233;-60
2023/09/29 01:43:48;;;;;;;11.98;9.18;;;15.40;99.90;;;;;;4976139;28;20275;-60
2023/09/29 01:46:17;;;;;;;12.93;9.30;;;15.40;99.90;;;;;;4976070;28;20610;-61
2023/09/29 01:48:43;;;;;;;14.63;10.27;;;15.50;99.90;;;;;;4975676;28;20187;-61
2023/09/29 01:51:09;;;;;;;12.23;9.43;;;15.50;99.90;;;;;;4976005;28;20185;-60
2023/09/29 01:53:35;;;;;;;14.93;10.02;;;15.50;99.90;;;;;;4975513;28;20181;-61
2023/09/29 01:56:02;;;;;;;12.32;10.25;;;15.50;99.90;;;;;;4974236;28;20220;-61
2023/09/29 01:58:27;;;;;;;11.73;9.65;;;15.50;99.90;;;;;;4975672;28;20174;-61
2023/09/29 02:00:54;;;;;;;12.48;10.40;;;15.50;99.90;;;;;;4975703;28;20281;-61
2023/09/29 02:03:21;;;;;;;12.15;9.70;;;15.60;99.90;;;;;;4975571;28;20185;-61
2023/09/29 02:05:47;;;;;;;13.30;10.52;;;15.50;99.90;;;;;;4975770;28;20666;-61
2023/09/29 02:08:13;;;;;;;15.55;12.45;;;15.60;99.90;;;;;;4975630;28;20165;-60
2023/09/29 02:10:39;;;;;;;17.55;12.93;;;15.60;99.90;;;;;;4975567;28;20200;-60
2023/09/29 02:13:04;;;;;;;16.20;13.48;;;15.60;99.90;;;;;;4973993;28;20185;-60
2023/09/29 02:15:34;;;;;;;15.40;12.02;;;15.60;99.90;;;;;;4976025;28;20181;-61
2023/09/29 02:18:00;;;;;;;19.52;12.55;;;15.60;99.90;;;;;;4957341;28;20315;-61
2023/09/29 02:20:33;;;;;;;15.38;11.80;;;15.60;99.90;;;;;;4994610;28;20193;-60
2023/09/29 02:23:00;;;;;;;14.95;11.95;;;15.60;99.90;;;;;;4987274;28;20188;-60
2023/09/29 02:25:28;;;;;;;15.20;12.50;;;15.60;99.90;;;;;;4993595;28;20189;-61
2023/09/29 02:27:56;;;;;;;17.58;12.75;;;15.60;99.90;;;;;;4994607;28;20668;-61
2023/09/29 02:30:24;;;;;;;17.40;12.38;;;15.60;99.90;;;;;;4994747;28;20193;-61
2023/09/29 02:32:52;;;;;;;13.73;10.63;;;15.60;99.90;;;;;;4994655;28;20169;-60
2023/09/29 02:35:18;;;;;;;14.60;10.65;;;15.60;99.90;;;;;;4994154;28;20570;-60
2023/09/29 02:37:44;;;;;;;15.10;10.65;;;15.60;99.90;;;;;;4990740;28;20177;-61
2023/09/29 02:40:15;;;;;;;15.85;11.93;;;15.60;99.90;;;;;;4973772;28;20220;-60
2023/09/29 02:42:43;;;;;;;16.08;11.93;;;15.60;99.90;;;;;;4975634;28;20282;-61
2023/09/29 02:45:09;;;;;;;20.88;12.80;;;15.60;99.90;;;;;;4994927;28;20529;-61
2023/09/29 02:47:39;;;;;;;16.35;12.50;;;15.60;99.90;;;;;;4964754;28;20188;-60
2023/09/29 02:50:10;;;;;;;20.50;13.18;;;15.60;99.90;;;;;;4974916;28;20243;-60
2023/09/29 02:52:38;;;;;;;16.52;12.68;;;15.60;99.90;;;;;;4957338;28;20173;-61
2023/09/29 02:55:04;;;;;;;22.15;13.27;;;15.60;99.90;;;;;;4957591;28;20185;-60
2023/09/29 02:57:30;;;;;;;18.70;15.05;;;15.50;99.90;;;;;;4976136;28;20213;-60
2023/09/29 02:59:57;;;;;;;19.20;12.40;;;15.50;99.90;;;;;;4975532;28;20228;-60
2023/09/29 03:02:23;;;;;;;19.63;13.02;;;15.50;99.90;;;;;;4975119;28;20525;-61
2023/09/29 03:04:50;;;;;;;13.15;11.38;;;15.50;99.90;;;;;;4975412;28;20577;-60
2023/09/29 03:07:19;;;;;;;18.08;13.13;;;15.50;99.90;;;;;;4974499;28;20180;-60
2023/09/29 03:09:45;;;;;;;16.75;13.35;;;15.60;99.90;;;;;;4974492;28;20570;-61
2023/09/29 03:12:11;;;;;;;16.73;12.50;;;15.60;99.90;;;;;;4973315;28;20586;-61
2023/09/29 03:14:37;;;;;;;16.02;13.55;;;15.60;99.90;;;;;;4957273;28;20196;-61
2023/09/29 03:17:03;;;;;;;19.05;14.75;;;15.60;99.90;;;;;;4957223;28;20686;-61
2023/09/29 03:19:32;;;;;;;22.90;13.95;;;15.60;99.90;;;;;;4973991;28;20204;-60
2023/09/29 03:22:01;;;;;;;17.38;12.75;;;15.50;99.90;;;;;;4974570;28;20197;-61
2023/09/29 03:24:30;;;;;;;14.35;11.25;;;15.50;99.90;;;;;;4973961;28;20189;-60
2023/09/29 03:26:59;;;;;;;13.80;11.43;;;15.50;99.90;;;;;;4989764;28;20208;-61
2023/09/29 03:29:24;;;;;;;14.90;11.38;;;15.50;99.90;;;;;;4972363;28;20209;-61
2023/09/29 03:31:53;;;;;;;15.70;10.20;;;15.40;99.90;;;;;;4977832;28;20177;-61
2023/09/29 03:34:19;;;;;;;13.10;11.52;;;15.40;99.90;;;;;;4978810;28;20180;-62
2023/09/29 03:36:45;;;;;;;11.20;8.95;;;15.40;99.90;;;;;;4978533;28;20197;-61
2023/09/29 03:39:11;;;;;;;15.32;10.77;;;15.30;99.90;;;;;;4978304;28;20666;-61
2023/09/29 03:41:37;;;;;;;15.48;10.88;;;15.30;99.90;;;;;;4978155;28;20172;-61
2023/09/29 03:44:03;;;;;;;15.98;11.43;;;15.30;99.90;;;;;;4977393;28;20188;-61
2023/09/29 03:46:29;;;;;;;17.63;10.15;;;15.30;99.90;;;;;;4978414;28;20180;-62
2023/09/29 03:48:55;;;;;;;13.25;10.88;;;15.30;99.90;;;;;;4977913;28;20185;-60
2023/09/29 03:51:24;;;;;;;12.32;9.85;;;15.30;99.90;;;;;;4997646;28;20161;-61
2023/09/29 03:53:51;;;;;;;13.18;10.98;;;15.30;99.90;;;;;;4979814;28;20560;-60
2023/09/29 03:56:23;;;;;;;14.63;10.13;;;15.40;99.90;;;;;;4997241;28;20268;-61
2023/09/29 03:58:50;;;;;;;13.57;11.25;;;15.30;99.90;;;;;;4997691;28;20167;-61
2023/09/29 04:01:16;;;;;;;13.00;10.77;;;15.30;99.90;;;;;;4984881;28;20177;-61
2023/09/29 04:03:42;;;;;;;15.27;10.82;;;15.30;99.90;;;;;;4978113;28;20169;-61
2023/09/29 04:06:09;;;;;;;13.85;10.82;;;15.40;99.90;;;;;;4976783;28;20181;-61
2023/09/29 04:08:35;;;;;;;14.75;11.25;;;15.40;99.90;;;;;;4987816;28;20679;-61
2023/09/29 04:11:01;;;;;;;15.18;11.57;;;15.40;99.90;;;;;;4979801;28;20653;-61
2023/09/29 04:13:26;;;;;;;16.70;11.85;;;15.40;99.90;;;;;;4997185;28;20175;-61
2023/09/29 04:15:52;;;;;;;13.77;12.15;;;15.50;99.90;;;;;;4997194;28;20205;-61
2023/09/29 04:18:18;;;;;;;15.15;10.93;;;15.50;99.90;;;;;;4989644;28;20650;-61
2023/09/29 04:20:44;;;;;;;14.80;10.80;;;15.40;99.90;;;;;;4988042;28;20212;-61
2023/09/29 04:23:09;;;;;;;15.13;11.65;;;15.40;99.90;;;;;;4975057;28;20933;-61
2023/09/29 04:25:35;;;;;;;16.73;11.52;;;15.40;99.90;;;;;;4960232;28;20207;-61
2023/09/29 04:28:01;;;;;;;15.20;12.20;;;15.40;99.90;;;;;;4977911;28;20173;-61
2023/09/29 04:30:27;;;;;;;17.33;11.27;;;15.40;99.90;;;;;;4977540;28;20214;-62
2023/09/29 04:32:53;;;;;;;12.65;10.65;;;15.40;99.90;;;;;;4977747;28;20566;-63
2023/09/29 04:35:19;;;;;;;14.55;11.45;;;15.40;99.90;;;;;;4977524;28;20177;-63
2023/09/29 04:37:45;;;;;;;12.38;10.60;;;15.40;99.90;;;;;;4977108;28;20217;-63
2023/09/29 04:40:11;;;;;;;14.43;11.55;;;15.40;99.90;;;;;;4984393;28;20205;-63
2023/09/29 04:42:38;;;;;;;14.75;10.77;;;15.40;99.90;;;;;;4976717;28;20170;-63
2023/09/29 04:45:06;;;;;;;15.98;12.07;;;15.50;99.90;;;;;;4977578;28;20240;-63
2023/09/29 04:47:32;;;;;;;16.73;12.52;;;15.50;99.90;;;;;;4986717;28;20176;-63
2023/09/29 04:49:58;;;;;;;15.43;12.40;;;15.50;99.90;;;;;;4996746;28;20192;-61
2023/09/29 04:52:26;;;;;;;13.95;12.45;;;15.50;99.90;;;;;;4987783;28;20181;-62
2023/09/29 04:54:52;;;;;;;16.55;11.85;;;15.50;99.90;;;;;;4976442;28;20626;-61
2023/09/29 04:57:18;;;;;;;16.08;11.32;;;15.60;99.90;;;;;;4975595;28;20213;-61
2023/09/29 04:59:44;;;;;;;13.57;12.00;;;15.50;99.90;;;;;;4976913;28;20197;-60
2023/09/29 05:02:09;;;;;;;14.68;11.32;;;15.50;99.90;;;;;;4976750;28;20232;-61
2023/09/29 05:04:35;;;;;;;15.95;12.35;;;15.50;99.90;;;;;;4959257;28;20185;-60
2023/09/29 05:07:01;;;;;;;15.77;11.98;;;15.40;99.90;;;;;;4976506;28;20220;-60
2023/09/29 05:09:26;;;;;;;14.00;11.32;;;15.40;99.90;;;;;;4976658;28;20196;-61
2023/09/29 05:11:52;;;;;;;18.15;11.82;;;15.50;99.90;;;;;;4975849;28;20298;-60
2023/09/29 05:14:18;;;;;;;15.05;11.25;;;15.50;99.90;;;;;;4976451;28;20626;-61
2023/09/29 05:16:44;;;;;;;17.23;12.13;;;15.60;99.90;;;;;;4976587;28;20661;-60
2023/09/29 05:19:10;;;;;;;16.17;11.70;;;15.60;99.90;;;;;;4985372;28;20557;-60
2023/09/29 05:21:36;;;;;;;16.83;11.90;;;15.60;99.90;;;;;;4977086;28;20188;-61
2023/09/29 05:24:02;;;;;;;12.50;10.48;;;15.60;99.90;;;;;;4973882;28;20178;-61
2023/09/29 05:26:28;;;;;;;12.13;10.77;;;15.70;99.90;;;;;;4974958;28;20610;-60
2023/09/29 05:28:55;;;;;;;14.30;11.93;;;15.70;99.90;;;;;;4958916;28;20183;-61
2023/09/29 05:31:21;;;;;;;13.70;9.80;;;15.70;99.90;;;;;;4976078;28;20575;-61
2023/09/29 05:33:47;;;;;;;13.45;10.73;;;15.80;99.90;;;;;;4976300;28;20170;-61
2023/09/29 05:36:13;;;;;;;10.82;9.43;;;15.80;99.90;;;;;;4976474;28;20200;-61
2023/09/29 05:38:39;;;;;;;13.43;10.10;;;15.80;99.90;;;;;;4975935;28;20187;-60
2023/09/29 05:41:05;;;;;;;10.30;8.48;;;15.90;99.90;;;;;;4976069;28;20193;-60
2023/09/29 05:43:30;;;;;;;12.80;8.27;;;15.90;99.90;;;;;;4974813;28;20200;-60
2023/09/29 05:45:56;;;;;;;9.20;7.72;;;15.90;99.90;;;;;;4973029;28;20197;-60
2023/09/29 05:48:22;;;;;;;8.80;7.70;;;15.90;99.90;;;;;;4985051;28;20192;-60
2023/09/29 05:50:49;;;;;;;9.73;7.75;;;15.90;99.90;;;;;;4995383;28;20196;-61
2023/09/29 05:53:15;;;;;;;8.55;7.57;;;16.00;99.90;;;;;;4986869;28;20181;-60
2023/09/29 05:55:41;;;;;;;10.27;7.28;;;16.00;99.90;;;;;;4975007;28;20240;-60
2023/09/29 05:58:07;;;;;;;9.82;6.85;;;16.00;99.90;;;;;;4972855;28;20655;-60
2023/09/29 06:00:33;;;;;;;10.10;6.78;;;16.10;99.90;;;;;;4987035;28;20208;-60
2023/09/29 06:02:59;;;;;;;12.57;8.60;;;16.10;99.90;;;;;;4977686;28;20185;-63
2023/09/29 06:05:26;;;;;;;9.82;7.75;;;16.20;99.90;;;;;;4995084;28;20196;-63
2023/09/29 06:07:52;;;;;;;7.78;6.60;;;16.20;99.90;;;;;;4974376;28;20256;-63
2023/09/29 06:10:18;;;;;;;9.25;6.85;;;16.20;99.90;;;;;;4973154;28;20674;-63
2023/09/29 06:12:44;;;;;;;9.35;6.65;;;16.20;99.90;;;;;;4972788;28;20280;-63
2023/09/29 06:15:10;;;;;;;9.55;6.82;;;16.30;99.90;;;;;;4969893;28;20223;-63
2023/09/29 06:17:36;;;;;;;10.38;6.20;;;16.30;99.90;;;;;;4981501;28;20208;-63
2023/09/29 06:20:04;;;;;;;10.65;7.40;;;16.30;99.90;;;;;;4953406;28;20608;-63
2023/09/29 06:22:31;;;;;;;8.55;6.97;;;16.40;99.90;;;;;;4975270;28;20305;-63
2023/09/29 06:24:57;;;;;;;10.25;6.50;;;16.40;99.90;;;;;;4956544;28;20406;-62
2023/09/29 06:27:23;;;;;;;7.57;6.45;;;16.50;99.90;;;;;;4974987;28;20260;-63
2023/09/29 06:29:50;;;;;;;7.97;5.93;;;16.50;99.90;;;;;;4975171;28;20390;-63
2023/09/29 06:32:19;;;;;;;8.25;6.82;;;16.60;99.90;;;;;;4973040;28;20271;-60
2023/09/29 06:34:44;;;;;;;8.60;6.25;;;16.70;99.90;;;;;;4974604;28;20185;-61
2023/09/29 06:37:14;;;;;;;7.47;6.25;;;16.80;99.90;;;;;;4985527;28;20205;-62
2023/09/29 06:39:40;;;;;;;6.28;5.68;;;16.80;99.90;;;;;;4959269;28;20649;-61
2023/09/29 06:42:06;;;;;;;6.70;5.55;;;16.90;99.90;;;;;;4994544;28;20161;-63
2023/09/29 06:44:33;;;;;;;6.20;5.60;;;16.90;99.90;;;;;;4994664;28;20191;-60
2023/09/29 06:46:59;;;;;;;7.60;6.10;;;17.00;99.90;;;;;;4968567;28;20192;-61
2023/09/29 06:49:25;;;;;;;7.28;5.43;;;17.10;99.90;;;;;;4974303;28;20296;-60
2023/09/29 06:51:51;;;;;;;7.30;5.97;;;17.10;99.90;;;;;;4956087;28;20177;-61
2023/09/29 06:54:17;;;;;;;9.07;6.25;;;17.10;99.90;;;;;;4973216;28;20752;-62
2023/09/29 06:56:42;;;;;;;7.22;5.75;;;17.20;99.90;;;;;;4968842;28;20238;-62
2023/09/29 06:59:08;;;;;;;10.18;6.10;;;17.20;99.90;;;;;;4967856;28;20231;-62
2023/09/29 07:01:36;;;;;;;8.50;5.70;;;17.30;99.90;;;;;;4973295;28;20545;-63
2023/09/29 07:04:02;;;;;;;10.18;5.93;;;17.30;99.90;;;;;;4973117;28;20226;-62
2023/09/29 07:06:28;;;;;;;8.13;5.80;;;17.40;99.90;;;;;;4973411;28;20754;-63
2023/09/29 07:08:53;;;;;;;9.18;6.22;;;17.40;99.90;;;;;;4974103;28;20267;-63
2023/09/29 07:11:19;;;;;;;8.50;5.45;;;17.50;99.90;;;;;;4973631;28;20599;-62
2023/09/29 07:13:45;;;;;;;7.55;5.30;;;17.50;99.90;;;;;;4973326;28;20196;-63
2023/09/29 07:16:11;;;;;;;6.22;5.40;;;17.60;99.90;;;;;;4973822;28;20205;-61
2023/09/29 07:18:37;;;;;;;8.90;5.40;;;17.70;99.90;;;;;;4973862;28;20638;-63
2023/09/29 07:21:03;;;;;;;7.25;5.28;;;17.80;99.90;;;;;;4973567;28;20204;-63
2023/09/29 07:23:33;;;;;;;8.15;5.45;;;17.80;99.90;;;;;;4971434;28;20650;-63
2023/09/29 07:25:59;;;;;;;6.07;5.25;;;17.80;99.90;;;;;;4973289;28;20197;-63
2023/09/29 07:28:25;;;;;;;6.90;5.90;;;17.90;99.90;;;;;;4973184;28;20184;-62
2023/09/29 07:30:50;;;;;;;7.38;5.47;;;17.90;99.90;;;;;;4974500;28;20212;-63
2023/09/29 07:33:16;;;;;;;8.85;5.25;;;18.00;99.90;;;;;;4973200;28;20236;-63
2023/09/29 07:35:46;;;;;;;7.47;5.93;;;18.10;99.90;;;;;;4954477;28;20276;-63
2023/09/29 07:38:12;;;;;;;7.30;5.60;;;18.10;99.90;;;;;;4972189;28;20205;-63
2023/09/29 07:40:38;;;;;;;9.23;5.75;;;18.20;99.90;;;;;;4970073;28;20239;-61
2023/09/29 07:43:05;;;;;;;8.50;5.05;;;18.20;99.90;;;;;;4972921;28;20215;-62
2023/09/29 07:45:34;;;;;;;6.25;4.90;;;18.30;99.90;;;;;;4971952;28;20188;-63
2023/09/29 07:47:59;;;;;;;8.93;5.20;;;18.30;99.90;;;;;;4972294;28;20247;-63
2023/09/29 07:50:26;;;;;;;7.03;5.18;;;18.40;99.90;;;;;;4969939;28;20209;-63
2023/09/29 07:52:52;;;;;;;9.45;4.88;;;18.50;99.90;;;;;;4973658;28;20200;-63
2023/09/29 07:55:18;;;;;;;6.43;4.70;;;18.50;99.90;;;;;;4979148;28;20185;-63
2023/09/29 07:57:44;;;;;;;8.32;5.00;;;18.60;99.90;;;;;;4968629;28;20219;-63
2023/09/29 08:00:11;;;;;;;6.53;4.53;;;18.70;99.90;;;;;;4969408;28;20205;-63
2023/09/29 08:02:37;;;;;;;7.65;4.90;;;18.80;99.90;;;;;;4973517;28;20184;-62
2023/09/29 08:05:03;;;;;;;6.93;4.57;;;18.90;99.90;;;;;;4971697;28;20181;-63
2023/09/29 08:07:29;;;;;;;6.90;4.63;;;19.10;99.90;;;;;;4974487;28;20661;-63
2023/09/29 08:09:55;;;;;;;7.55;4.70;;;19.20;99.90;;;;;;4970893;28;20221;-63
2023/09/29 08:12:20;;;;;;;9.18;4.13;;;19.30;99.90;;;;;;4973770;28;20298;-63
2023/09/29 08:14:47;;;;;;;5.55;3.70;;;19.60;99.90;;;;;;4974236;28;20172;-63
2023/09/29 08:17:13;;;;;;;5.50;3.47;;;20.00;99.90;;;;;;4975809;28;20779;-63
2023/09/29 08:19:42;;;;;;;5.60;3.85;;;20.40;99.90;;;;;;4956721;28;20731;-63
2023/09/29 08:22:07;;;;;;;10.23;4.13;;;20.70;99.90;;;;;;4966323;28;20190;-61
2023/09/29 08:24:34;;;;;;;6.70;3.55;;;21.00;99.90;;;;;;4975845;28;20255;-63
2023/09/29 08:27:00;;;;;;;6.97;3.42;;;21.10;99.90;;;;;;4975011;28;20197;-63
2023/09/29 08:29:26;;;;;;;7.78;3.78;;;21.10;99.90;;;;;;4975908;28;20259;-62
2023/09/29 08:31:53;;;;;;;5.53;3.70;;;21.00;99.90;;;;;;4973390;28;20182;-63
2023/09/29 08:34:19;;;;;;;6.35;3.35;;;21.10;99.90;;;;;;4976939;28;20686;-63
2023/09/29 08:36:45;;;;;;;5.20;3.63;;;21.40;99.90;;;;;;4977028;28;20259;-63
2023/09/29 08:39:11;;;;;;;6.10;3.88;;;21.60;99.90;;;;;;4977131;28;20205;-63
2023/09/29 08:41:45;;;;;;;11.32;3.75;;;21.90;99.90;;;;;;4976647;28;20184;-63
2023/09/29 08:44:17;;;;;;;6.25;3.75;;;22.00;99.90;;;;;;4976130;28;20192;-63
2023/09/29 08:46:47;;;;;;;5.88;3.22;;;22.10;99.90;;;;;;4977176;28;20189;-63
2023/09/29 08:49:16;;;;;;;5.20;3.40;;;22.30;99.90;;;;;;4965744;28;20295;-63
2023/09/29 08:51:46;;;;;;;3.72;2.88;;;22.50;99.90;;;;;;4977100;28;20184;-63
2023/09/29 08:54:14;;;;;;;5.93;3.33;;;22.70;99.90;;;;;;4976795;28;20181;-63
2023/09/29 08:56:40;;;;;;;5.68;2.92;;;22.80;99.90;;;;;;4976833;28;20761;-63
2023/09/29 08:59:06;;;;;;;6.28;3.33;;;23.00;99.90;;;;;;4971879;28;20212;-62
2023/09/29 09:01:32;;;;;;;6.53;3.17;;;23.00;99.90;;;;;;4977352;28;20169;-63
2023/09/29 09:03:59;;;;;;;7.38;3.47;;;23.10;99.90;;;;;;4975112;28;20196;-63
2023/09/29 09:06:26;;;;;;;5.20;3.17;;;23.00;99.90;;;;;;4969327;28;20173;-63
2023/09/29 09:08:53;;;;;;;7.93;3.13;;;22.90;99.90;;;;;;4977050;28;20272;-63
2023/09/29 09:11:19;;;;;;;4.78;3.40;;;23.00;99.90;;;;;;4992539;28;20195;-63
2023/09/29 09:14:15;;;;;;;5.03;3.25;;;23.10;99.90;;;;;;4978674;28;20275;-63
2023/09/29 09:16:43;;;;;;;6.00;3.05;;;23.20;99.90;;;;;;4976498;28;20204;-62
2023/09/29 09:19:14;;;;;;;6.93;3.28;;;23.30;99.90;;;;;;4980947;28;20193;-62
2023/09/29 09:21:41;;;;;;;6.53;3.10;;;23.20;99.90;;;;;;4977373;28;20204;-62
2023/09/29 09:24:23;;;;;;;5.13;3.35;;;23.10;99.90;;;;;;4972631;28;20189;-62
2023/09/29 09:26:50;;;;;;;10.00;3.55;;;23.00;99.90;;;;;;4977038;28;20604;-62
2023/09/29 09:29:17;;;;;;;6.10;2.83;;;22.70;99.90;;;;;;4968822;28;20259;-63
2023/09/29 09:31:58;;;;;;;6.00;3.60;;;22.60;99.90;;;;;;4976184;28;20193;-63
2023/09/29 09:34:33;;;;;;;4.47;3.03;;;22.40;99.90;;;;;;4976166;28;20178;-63
2023/09/29 09:36:59;;;;;;;5.57;3.45;;;22.20;99.90;;;;;;4967801;28;20223;-62
2023/09/29 09:39:27;;;;;;;3.97;3.17;;;22.10;99.90;;;;;;4955915;28;20213;-63
2023/09/29 09:41:54;;;;;;;5.22;3.30;;;22.10;99.90;;;;;;4972682;28;20181;-62
2023/09/29 09:44:24;;;;;;;5.32;3.88;;;22.00;99.90;;;;;;4956713;29;20186;-63
2023/09/29 09:47:04;;;;;;;7.55;3.63;;;21.80;99.90;;;;;;4955089;28;20279;-63
2023/09/29 09:49:43;;;;;;;5.22;3.10;;;21.70;99.90;;;;;;4974843;28;20678;-63
2023/09/29 09:52:12;;;;;;;7.85;3.45;;;21.70;99.90;;;;;;4973761;28;20292;-63
2023/09/29 09:54:56;;;;;;;7.47;3.72;;;21.60;99.90;;;;;;4957338;28;20223;-63
2023/09/29 09:57:34;;;;;;;5.88;3.40;;;21.60;99.90;;;;;;4974325;28;20240;-63
2023/09/29 10:00:10;;;;;;;5.93;3.50;;;21.60;99.90;;;;;;4974704;28;20201;-62
2023/09/29 10:02:40;;;;;;;5.35;3.58;;;21.60;99.90;;;;;;4975865;28;20162;-63
2023/09/29 10:05:16;;;;;;;6.70;3.47;;;21.60;99.90;;;;;;4973899;28;20642;-63
2023/09/29 10:07:49;;;;;;;8.30;3.78;;;21.70;99.90;;;;;;4973231;28;20199;-63
2023/09/29 10:10:33;;;;;;;5.22;3.38;;;21.80;99.90;;;;;;4974383;28;20201;-63
2023/09/29 10:13:00;;;;;;;7.20;3.78;;;22.00;99.90;;;;;;4952534;28;20728;-63
2023/09/29 10:15:30;;;;;;;10.23;4.70;;;22.20;99.90;;;;;;4972692;28;20598;-63
2023/09/29 10:18:00;;;;;;;5.82;3.90;;;22.40;99.90;;;;;;4975525;28;20209;-63
2023/09/29 10:20:29;;;;;;;6.72;3.97;;;22.50;99.90;;;;;;4975559;28;20201;-63
2023/09/29 10:23:08;;;;;;;6.00;3.60;;;22.50;99.90;;;;;;4975918;28;20177;-63
2023/09/29 10:25:38;;;;;;;5.30;3.78;;;22.60;99.90;;;;;;4975621;28;20189;-62
2023/09/29 10:28:07;;;;;;;7.57;3.70;;;22.60;99.90;;;;;;4975116;28;20174;-63
2023/09/29 10:30:34;;;;;;;4.50;3.78;;;22.70;99.90;;;;;;4967147;28;20236;-63
2023/09/29 10:33:13;;;;;;;7.63;4.00;;;22.70;99.90;;;;;;4975582;28;20211;-62
2023/09/29 10:35:47;;;;;;;8.00;4.10;;;22.80;99.90;;;;;;4973984;28;20188;-63
2023/09/29 10:38:26;;;;;;;8.30;3.67;;;23.00;99.90;;;;;;4957782;28;20181;-63
2023/09/29 10:40:55;;;;;;;5.00;3.72;;;23.20;99.90;;;;;;4975131;28;20215;-63
2023/09/29 10:43:23;;;;;;;6.75;3.83;;;23.20;99.90;;;;;;4975241;28;20642;-63
2023/09/29 10:45:50;;;;;;;6.75;4.07;;;23.10;99.90;;;;;;4957624;28;20181;-63
2023/09/29 10:48:23;;;;;;;6.80;4.68;;;23.10;99.90;;;;;;4975297;28;20181;-63
2023/09/29 10:50:49;;;;;;;7.50;4.28;;;22.90;99.90;;;;;;4974991;28;20276;-63
2023/09/29 10:53:17;;;;;;;6.85;4.35;;;22.90;99.90;;;;;;4963192;28;20189;-63
2023/09/29 10:55:48;;;;;;;6.22;4.18;;;22.70;99.90;;;;;;4975392;28;20674;-63
2023/09/29 10:58:17;;;;;;;6.68;4.38;;;22.60;99.90;;;;;;4974791;28;20172;-63
2023/09/29 11:00:48;;;;;;;10.35;4.63;;;22.60;99.90;;;;;;4974883;28;20203;-62
2023/09/29 11:03:23;;;;;;;12.15;4.90;;;22.40;99.90;;;;;;4973665;28;20263;-63
2023/09/29 11:05:53;;;;;;;8.80;4.85;;;22.30;99.90;;;;;;4974902;28;20157;-63
2023/09/29 11:08:27;;;;;;;5.43;3.95;;;22.30;99.90;;;;;;4973685;28;20658;-63
2023/09/29 11:11:03;;;;;;;8.35;4.10;;;22.10;99.90;;;;;;4974712;28;20203;-62
2023/09/29 11:13:30;;;;;;;7.68;4.10;;;21.90;99.90;;;;;;4974442;28;20610;-62
2023/09/29 11:15:58;;;;;;;6.97;4.10;;;21.90;99.90;;;;;;4974896;28;20189;-63
2023/09/29 11:18:32;;;;;;;6.97;3.72;;;21.90;99.90;;;;;;4974474;28;20181;-63
2023/09/29 11:21:00;;;;;;;9.43;4.25;;;21.80;99.90;;;;;;4974352;28;20708;-63
2023/09/29 11:23:28;;;;;;;8.18;4.00;;;21.70;99.90;;;;;;4955266;28;20173;-63
2023/09/29 11:26:02;;;;;;;6.03;3.63;;;21.60;99.90;;;;;;4970334;28;20200;-63
2023/09/29 11:28:30;;;;;;;8.93;3.88;;;21.40;99.90;;;;;;4974701;28;20161;-62
2023/09/29 11:30:57;;;;;;;10.18;3.55;;;21.40;99.90;;;;;;4973594;28;20235;-63
2023/09/29 11:33:25;;;;;;;6.97;3.58;;;21.50;99.90;;;;;;4974723;28;20181;-63
2023/09/29 11:35:51;;;;;;;8.10;4.35;;;21.50;99.90;;;;;;4974338;28;20182;-63
2023/09/29 11:38:20;;;;;;;7.18;3.92;;;21.60;99.90;;;;;;4974573;28;20179;-63
2023/09/29 11:40:52;;;;;;;8.50;4.00;;;21.70;99.90;;;;;;4974280;28;20197;-63
2023/09/29 11:43:21;;;;;;;8.23;3.95;;;21.90;99.90;;;;;;4972925;28;20178;-63
2023/09/29 11:45:48;;;;;;;6.88;3.72;;;22.30;99.90;;;;;;4973660;28;20558;-62
2023/09/29 11:48:14;;;;;;;9.55;4.50;;;22.50;99.90;;;;;;4974624;28;20185;-63
2023/09/29 11:50:40;;;;;;;9.48;4.18;;;22.70;99.90;;;;;;4974375;28;20207;-63
2023/09/29 11:53:07;;;;;;;9.93;4.38;;;22.90;99.90;;;;;;4976467;28;20650;-63
2023/09/29 11:55:36;;;;;;;10.60;5.07;;;23.00;99.90;;;;;;4978156;28;20252;-63
2023/09/29 11:58:04;;;;;;;13.00;4.70;;;23.10;99.90;;;;;;4977913;28;20205;-63
2023/09/29 12:00:32;;;;;;;10.23;4.78;;;23.30;99.90;;;;;;4976593;28;20212;-62
2023/09/29 12:03:05;;;;;;;9.00;4.43;;;23.30;99.90;;;;;;4960949;28;20208;-63
2023/09/29 12:05:34;;;;;;;10.50;4.63;;;23.40;99.90;;;;;;4978366;28;20157;-63
2023/09/29 12:08:04;;;;;;;10.05;5.03;;;23.50;99.90;;;;;;4973393;28;20188;-63
2023/09/29 12:10:31;;;;;;;13.23;5.38;;;23.50;99.90;;;;;;4977712;28;20189;-63
2023/09/29 12:12:58;;;;;;;14.20;5.28;;;23.70;99.90;;;;;;4977375;28;20174;-63
2023/09/29 12:15:25;;;;;;;12.57;5.85;;;23.60;99.90;;;;;;4977677;28;20174;-63
2023/09/29 12:17:52;;;;;;;9.55;4.63;;;23.50;99.90;;;;;;4975050;28;20224;-63
2023/09/29 12:20:18;;;;;;;12.45;5.78;;;23.50;99.90;;;;;;4977418;28;20289;-63
2023/09/29 12:22:47;;;;;;;13.10;5.55;;;23.60;99.90;;;;;;4978001;28;20180;-62
2023/09/29 12:25:14;;;;;;;13.10;5.70;;;23.60;99.90;;;;;;4976932;28;20196;-63
2023/09/29 12:27:45;;;;;;;14.65;6.00;;;23.60;99.90;;;;;;4958947;28;20324;-63
2023/09/29 12:30:12;;;;;;;14.07;6.53;;;23.60;99.90;;;;;;4976076;28;20201;-63
2023/09/29 12:32:39;;;;;;;14.68;6.38;;;23.70;99.90;;;;;;4968126;28;20526;-63
2023/09/29 12:35:07;;;;;;;15.15;5.78;;;23.70;99.90;;;;;;4976206;28;20185;-63
2023/09/29 12:37:34;;;;;;;14.20;6.63;;;23.80;99.90;;;;;;4975969;28;20208;-63
2023/09/29 12:40:00;;;;;;;13.75;6.57;;;23.90;99.90;;;;;;4975942;28;20201;-63